Paquis — 3EAK9 — position and weather

sailwx.info

Track history (hours):
 
Tides and Currents Weather Stations Pressure Air Temp Water Temp Dewpoint Dewpoint Depression Visibility Wind Speed Wind Dir Waves Ship Positions

Paquis

Last reported at 2018-Jun-14 18:02 UTC. Time now 2018-Jul-21 07:52 UTC.
Position N 22°12' E 119°49'.
Warning: this ship's position is 36 days out of date.

Length 225 m; draft 6.1 m.

Type: Cargo ship. MMSI: 353018000.

Date/timePositionNaut miles runAvg speedWind from/ knotsBaromVisibWave heightAir tempDewpointWater temp
2018-Jun-14 18:02N 22°12' E 119°49'110.5
2018-Jun-14 17:55N 22°13' E 119°49'410.8
2018-Jun-14 17:30N 22°18' E 119°49'510.8
2018-Jun-14 17:01N 22°23' E 119°49'611.1
2018-Jun-14 16:30N 22°29' E 119°49'5 9.9
2018-Jun-14 16:00N 22°34' E 119°49'4 8.7
2018-Jun-14 15:31N 22°38' E 119°49'611.3
2018-Jun-14 15:01N 22°44' E 119°49'611.1
2018-Jun-14 14:31N 22°49' E 119°50'510.7
2018-Jun-14 14:01N 22°55' E 119°50'48010.9
2018-Jun-12 17:59N 30°15' E 123°24'612.4
2018-Jun-12 17:30N 30°21' E 123°23'612.2
2018-Jun-12 16:59N 30°27' E 123°22'712.2
2018-Jun-12 16:27N 30°34' E 123°22'612.0
2018-Jun-12 15:58N 30°40' E 123°21'611.7
2018-Jun-12 15:29N 30°45' E 123°20'611.8
2018-Jun-12 14:59N 30°51' E 123°20'2311.3
2018-Jun-12 12:56N 30°60' E 122°55'5 9.0
2018-Jun-12 12:23N 31°01' E 122°50'3 6.5
2018-Jun-12 12:00N 31°02' E 122°47'0 0.1
2018-Jun-12 11:13N 31°02' E 122°47'0 0.1
2018-Jun-12 10:58N 31°02' E 122°47'0 0.1
2018-Jun-12 10:19N 31°02' E 122°47'0 0.1
2018-Jun-12 09:49N 31°02' E 122°47'0 0.1
2018-Jun-12 09:28N 31°02' E 122°47'0 0.1
2018-Jun-12 08:58N 31°02' E 122°47'0 0.1
2018-Jun-12 08:28N 31°02' E 122°47'0 0.0
2018-Jun-12 07:58N 31°02' E 122°47'0 0.1
2018-Jun-12 07:28N 31°02' E 122°47'0 0.0
2018-Jun-12 06:58N 31°02' E 122°47'0 0.1
2018-Jun-12 06:28N 31°02' E 122°47'0 0.0
2018-Jun-12 05:58N 31°02' E 122°47'0 0.0
2018-Jun-12 05:25N 31°02' E 122°47'0 0.0
2018-Jun-12 04:58N 31°02' E 122°47'0 0.1
2018-Jun-12 04:28N 31°02' E 122°47'0 0.1
2018-Jun-12 03:58N 31°02' E 122°47'0 0.1
2018-Jun-12 03:28N 31°02' E 122°47'0 0.1
2018-Jun-12 02:58N 31°02' E 122°47'0 0.1
2018-Jun-12 02:28N 31°02' E 122°47'0 0.1
2018-Jun-12 01:58N 31°02' E 122°47'0 0.1
2018-Jun-12 01:28N 31°02' E 122°47'0 0.0
2018-Jun-12 00:58N 31°02' E 122°47'0 0.0
2018-Jun-12 00:28N 31°02' E 122°47'0 0.1
2018-Jun-11 23:55N 31°02' E 122°47'0 0.0
2018-Jun-11 23:28N 31°02' E 122°47'0 0.0
2018-Jun-11 22:58N 31°02' E 122°47'0 0.1
2018-Jun-11 21:40N 31°02' E 122°47'0 0.1
2018-Jun-11 21:28N 31°02' E 122°47'0 0.2
2018-Jun-11 20:55N 31°02' E 122°47'0 0.1
2018-Jun-11 18:52N 31°02' E 122°47'0 0.1
2018-Jun-11 18:28N 31°02' E 122°47'0 0.0
2018-Jun-11 17:49N 31°02' E 122°47'0 0.0
2018-Jun-11 17:28N 31°02' E 122°47'0 0.1
2018-Jun-11 16:58N 31°02' E 122°47'0 0.0
2018-Jun-11 16:28N 31°02' E 122°47'0 0.0
2018-Jun-11 15:58N 31°02' E 122°47'0 0.1
2018-Jun-11 15:25N 31°02' E 122°47'0 0.1
2018-Jun-11 14:58N 31°02' E 122°47'0 0.1
2018-Jun-11 14:13N 31°02' E 122°47'0 0.1
2018-Jun-11 13:49N 31°02' E 122°47'21 0.8
2018-Jun-10 11:43N 31°01' E 122°22'2 8.7
2018-Jun-10 11:30N 31°02' E 122°20'5 8.2
2018-Jun-10 10:54N 31°02' E 122°14'2 5.7
2018-Jun-10 10:29N 31°03' E 122°11'5 8.9
2018-Jun-10 09:58N 31°04' E 122°06'4 8.8
2018-Jun-10 09:30N 31°05' E 122°02'5 9.2
2018-Jun-10 08:58N 31°07' E 121°56'510.7
2018-Jun-10 08:30N 31°10' E 121°52'712.8
2018-Jun-10 07:57N 31°15' E 121°46'6 0.6
2018-Jun-09 22:06N 31°21' E 121°43'0 0.7
2018-Jun-09 21:52N 31°21' E 121°43'1 0.0
2018-Jun-08 18:14N 31°22' E 121°43'0 0.0
2018-Jun-08 17:44N 31°22' E 121°43'0 0.0
2018-Jun-07 23:02N 31°22' E 121°43'0 0.0
2018-Jun-07 22:50N 31°22' E 121°43'0 0.0
2018-Jun-07 22:29N 31°22' E 121°43'0 0.0
2018-Jun-07 21:56N 31°22' E 121°43'0 0.0
2018-Jun-07 21:23N 31°22' E 121°43'0 0.0
2018-Jun-07 20:59N 31°22' E 121°43'0 0.0
2018-Jun-07 20:29N 31°22' E 121°43'0 0.0
2018-Jun-07 19:59N 31°22' E 121°43'0 0.0
2018-Jun-07 19:20N 31°22' E 121°43'0 0.0
2018-Jun-07 18:59N 31°22' E 121°43'0 0.0
2018-Jun-07 18:29N 31°22' E 121°43'0 0.0
2018-Jun-07 17:59N 31°22' E 121°43'0 0.0
2018-Jun-07 15:08N 31°22' E 121°43'0 0.0
2018-Jun-07 14:50N 31°22' E 121°43'0 0.0
2018-Jun-07 14:20N 31°22' E 121°43'0 0.0
2018-Jun-07 13:50N 31°22' E 121°43'0 0.0
2018-Jun-07 13:20N 31°22' E 121°43'0 0.0
2018-Jun-07 12:44N 31°22' E 121°43'0 0.0
2018-Jun-07 12:23N 31°22' E 121°43'0 0.0
2018-Jun-07 11:56N 31°22' E 121°43'0 0.0
2018-Jun-07 11:14N 31°22' E 121°43'1 0.0
2018-Jun-05 22:47N 31°22' E 121°43'0 0.0
2018-Jun-05 22:29N 31°22' E 121°43'0 0.0
2018-Jun-05 21:59N 31°22' E 121°43'0 0.0
2018-Jun-05 21:29N 31°22' E 121°43'0 0.0
2018-Jun-05 20:59N 31°22' E 121°43'0 0.0
2018-Jun-05 20:29N 31°22' E 121°43'0 0.0
2018-Jun-05 18:53N 31°22' E 121°43'0 0.0
2018-Jun-05 18:26N 31°22' E 121°43'0 0.0
2018-Jun-05 17:53N 31°22' E 121°43'0 0.0
2018-Jun-05 17:29N 31°22' E 121°43'0 0.0
2018-Jun-05 16:23N 31°22' E 121°43'0 0.0
2018-Jun-05 15:35N 31°22' E 121°43'0 0.0
2018-Jun-05 15:08N 31°22' E 121°43'0 0.0
2018-Jun-05 14:59N 31°22' E 121°43'0 0.0
2018-Jun-05 14:14N 31°22' E 121°43'0 0.0
2018-Jun-05 13:56N 31°22' E 121°43'0 0.0
2018-Jun-05 13:29N 31°22' E 121°43'0 0.0
2018-Jun-05 12:53N 31°22' E 121°43'0 0.0
2018-Jun-05 11:44N 31°22' E 121°43'0 0.0
2018-Jun-05 11:26N 31°22' E 121°43'  
Track history (hours):
 
Tides and Currents Weather Stations Pressure Air Temp Water Temp Dewpoint Dewpoint Depression Visibility Wind Speed Wind Dir Waves Ship Positions

Paquis

Last reported at 2018-Jun-14 18:02 UTC. Time now 2018-Jul-21 07:52 UTC.
Position N 22°12' E 119°49'.
Warning: this ship's position is 36 days out of date.

Length 225 m; draft 6.1 m.

Type: Cargo ship. MMSI: 353018000.

Date/timePositionNaut miles runAvg speedWind from/ knotsBaromVisibWave heightAir tempDewpointWater temp
2018-Jun-14 18:02N 22°12' E 119°49'110.5
2018-Jun-14 17:55N 22°13' E 119°49'410.8
2018-Jun-14 17:30N 22°18' E 119°49'510.8
2018-Jun-14 17:01N 22°23' E 119°49'611.1
2018-Jun-14 16:30N 22°29' E 119°49'5 9.9
2018-Jun-14 16:00N 22°34' E 119°49'4 8.7
2018-Jun-14 15:31N 22°38' E 119°49'611.3
2018-Jun-14 15:01N 22°44' E 119°49'611.1
2018-Jun-14 14:31N 22°49' E 119°50'510.7
2018-Jun-14 14:01N 22°55' E 119°50'48010.9
2018-Jun-12 17:59N 30°15' E 123°24'612.4
2018-Jun-12 17:30N 30°21' E 123°23'612.2
2018-Jun-12 16:59N 30°27' E 123°22'712.2
2018-Jun-12 16:27N 30°34' E 123°22'612.0
2018-Jun-12 15:58N 30°40' E 123°21'611.7
2018-Jun-12 15:29N 30°45' E 123°20'611.8
2018-Jun-12 14:59N 30°51' E 123°20'2311.3
2018-Jun-12 12:56N 30°60' E 122°55'5 9.0
2018-Jun-12 12:23N 31°01' E 122°50'3 6.5
2018-Jun-12 12:00N 31°02' E 122°47'0 0.1
2018-Jun-12 11:13N 31°02' E 122°47'0 0.1
2018-Jun-12 10:58N 31°02' E 122°47'0 0.1
2018-Jun-12 10:19N 31°02' E 122°47'0 0.1
2018-Jun-12 09:49N 31°02' E 122°47'0 0.1
2018-Jun-12 09:28N 31°02' E 122°47'0 0.1
2018-Jun-12 08:58N 31°02' E 122°47'0 0.1
2018-Jun-12 08:28N 31°02' E 122°47'0 0.0
2018-Jun-12 07:58N 31°02' E 122°47'0 0.1
2018-Jun-12 07:28N 31°02' E 122°47'0 0.0
2018-Jun-12 06:58N 31°02' E 122°47'0 0.1
2018-Jun-12 06:28N 31°02' E 122°47'0 0.0
2018-Jun-12 05:58N 31°02' E 122°47'0 0.0
2018-Jun-12 05:25N 31°02' E 122°47'0 0.0
2018-Jun-12 04:58N 31°02' E 122°47'0 0.1
2018-Jun-12 04:28N 31°02' E 122°47'0 0.1
2018-Jun-12 03:58N 31°02' E 122°47'0 0.1
2018-Jun-12 03:28N 31°02' E 122°47'0 0.1
2018-Jun-12 02:58N 31°02' E 122°47'0 0.1
2018-Jun-12 02:28N 31°02' E 122°47'0 0.1
2018-Jun-12 01:58N 31°02' E 122°47'0 0.1
2018-Jun-12 01:28N 31°02' E 122°47'0 0.0
2018-Jun-12 00:58N 31°02' E 122°47'0 0.0
2018-Jun-12 00:28N 31°02' E 122°47'0 0.1
2018-Jun-11 23:55N 31°02' E 122°47'0 0.0
2018-Jun-11 23:28N 31°02' E 122°47'0 0.0
2018-Jun-11 22:58N 31°02' E 122°47'0 0.1
2018-Jun-11 21:40N 31°02' E 122°47'0 0.1
2018-Jun-11 21:28N 31°02' E 122°47'0 0.2
2018-Jun-11 20:55N 31°02' E 122°47'0 0.1
2018-Jun-11 18:52N 31°02' E 122°47'0 0.1
2018-Jun-11 18:28N 31°02' E 122°47'0 0.0
2018-Jun-11 17:49N 31°02' E 122°47'0 0.0
2018-Jun-11 17:28N 31°02' E 122°47'0 0.1
2018-Jun-11 16:58N 31°02' E 122°47'0 0.0
2018-Jun-11 16:28N 31°02' E 122°47'0 0.0
2018-Jun-11 15:58N 31°02' E 122°47'0 0.1
2018-Jun-11 15:25N 31°02' E 122°47'0 0.1
2018-Jun-11 14:58N 31°02' E 122°47'0 0.1
2018-Jun-11 14:13N 31°02' E 122°47'0 0.1
2018-Jun-11 13:49N 31°02' E 122°47'21 0.8
2018-Jun-10 11:43N 31°01' E 122°22'2 8.7
2018-Jun-10 11:30N 31°02' E 122°20'5 8.2
2018-Jun-10 10:54N 31°02' E 122°14'2 5.7
2018-Jun-10 10:29N 31°03' E 122°11'5 8.9
2018-Jun-10 09:58N 31°04' E 122°06'4 8.8
2018-Jun-10 09:30N 31°05' E 122°02'5 9.2
2018-Jun-10 08:58N 31°07' E 121°56'510.7
2018-Jun-10 08:30N 31°10' E 121°52'712.8
2018-Jun-10 07:57N 31°15' E 121°46'6 0.6
2018-Jun-09 22:06N 31°21' E 121°43'0 0.7
2018-Jun-09 21:52N 31°21' E 121°43'1 0.0
2018-Jun-08 18:14N 31°22' E 121°43'0 0.0
2018-Jun-08 17:44N 31°22' E 121°43'0 0.0
2018-Jun-07 23:02N 31°22' E 121°43'0 0.0
2018-Jun-07 22:50N 31°22' E 121°43'0 0.0
2018-Jun-07 22:29N 31°22' E 121°43'0 0.0
2018-Jun-07 21:56N 31°22' E 121°43'0 0.0
2018-Jun-07 21:23N 31°22' E 121°43'0 0.0
2018-Jun-07 20:59N 31°22' E 121°43'0 0.0
2018-Jun-07 20:29N 31°22' E 121°43'0 0.0
2018-Jun-07 19:59N 31°22' E 121°43'0 0.0
2018-Jun-07 19:20N 31°22' E 121°43'0 0.0
2018-Jun-07 18:59N 31°22' E 121°43'0 0.0
2018-Jun-07 18:29N 31°22' E 121°43'0 0.0
2018-Jun-07 17:59N 31°22' E 121°43'0 0.0
2018-Jun-07 15:08N 31°22' E 121°43'0 0.0
2018-Jun-07 14:50N 31°22' E 121°43'0 0.0
2018-Jun-07 14:20N 31°22' E 121°43'0 0.0
2018-Jun-07 13:50N 31°22' E 121°43'0 0.0
2018-Jun-07 13:20N 31°22' E 121°43'0 0.0
2018-Jun-07 12:44N 31°22' E 121°43'0 0.0
2018-Jun-07 12:23N 31°22' E 121°43'0 0.0
2018-Jun-07 11:56N 31°22' E 121°43'0 0.0
2018-Jun-07 11:14N 31°22' E 121°43'1 0.0
2018-Jun-05 22:47N 31°22' E 121°43'0 0.0
2018-Jun-05 22:29N 31°22' E 121°43'0 0.0
2018-Jun-05 21:59N 31°22' E 121°43'0 0.0
2018-Jun-05 21:29N 31°22' E 121°43'0 0.0
2018-Jun-05 20:59N 31°22' E 121°43'0 0.0
2018-Jun-05 20:29N 31°22' E 121°43'0 0.0
2018-Jun-05 18:53N 31°22' E 121°43'0 0.0
2018-Jun-05 18:26N 31°22' E 121°43'0 0.0
2018-Jun-05 17:53N 31°22' E 121°43'0 0.0
2018-Jun-05 17:29N 31°22' E 121°43'0 0.0
2018-Jun-05 16:23N 31°22' E 121°43'0 0.0
2018-Jun-05 15:35N 31°22' E 121°43'0 0.0
2018-Jun-05 15:08N 31°22' E 121°43'0 0.0
2018-Jun-05 14:59N 31°22' E 121°43'0 0.0
2018-Jun-05 14:14N 31°22' E 121°43'0 0.0
2018-Jun-05 13:56N 31°22' E 121°43'0 0.0
2018-Jun-05 13:29N 31°22' E 121°43'0 0.0
2018-Jun-05 12:53N 31°22' E 121°43'0 0.0
2018-Jun-05 11:44N 31°22' E 121°43'0 0.0
2018-Jun-05 11:26N 31°22' E 121°43'  

Dump ship's entire track history